Hlavní strana
METAR-TAF:

METAR-TAF

Letiště :

Wangaratta, Austrálie

zeměpisná šířka: 36-24-57S, zeměpisná délka: 146-18-25E, výška: 154 m

Aktuální stav počasí

Zpráva byla vytvořena před 39 minutami, v 04:00 UTC
Západní vítr 4 kt, proměnlivý mezi jihozápadním a západním
Teplota 18°C
Vlhkost vzduchu 56%
Tlak 1020 hPa
Viditelnost 10 km a více
Polojasno ve výšce 3600 ft

METAR: YWGT 070400Z AUTO 26004KT 220V280 9999 // SCT036 18/09 Q1020

Čas: 14:39 (04:39 UTC)

Předpověď počasí

Zpráva byla vytvořena před 3 hodinami a 21 minutami, v 01:18 UTC
Předpověď platná od 07 v 02 UTC do 07 v 14 UTC
vítr z různých směrů 3 kt
Viditelnost 10 km a více
Polojasno ve výšce 4000 ft

TAF: YWGT 070118Z 0702/0714 VRB03KT 9999 SCT040

Stav a předpovědi počasí z více než 4 000 letišť (zprávy METAR a TAF).

Červené a žluté tečky na mapě představují dostupné meteorologické stanice.

Když kurzor umístíte na tečku, zobrazí se název stanice.

Pak kliknutím zobrazíte stav a předpověď počasí.

Chcete-li změnit mapu, kliknutím na zelené tlačítko se znaménkem +mapu přiblížíte, kliknutím na zelené tlačítko se znaménkem – mapu oddálíte a kliknutím na zelené šipky přejdete na sousední mapy.


METAR-TAF: